createdAt,value
2024-05-09T00:00:31.640Z,0.00
2024-05-09T00:01:28.025Z,0.00
2024-05-09T00:02:28.119Z,0.00
2024-05-09T00:03:28.133Z,0.00
2024-05-09T00:04:28.129Z,0.00
2024-05-09T00:05:28.206Z,0.00
2024-05-09T00:06:28.230Z,0.00
2024-05-09T00:07:28.283Z,0.00
2024-05-09T00:08:28.439Z,0.00
2024-05-09T00:09:28.376Z,0.00
2024-05-09T00:10:35.534Z,0.00
2024-05-09T00:11:28.592Z,0.00
2024-05-09T00:12:28.559Z,0.00
2024-05-09T00:13:28.589Z,0.00
2024-05-09T00:14:28.748Z,0.00
2024-05-09T00:15:28.697Z,0.00
2024-05-09T00:16:28.743Z,0.00
2024-05-09T00:17:29.011Z,0.00
2024-05-09T00:18:28.894Z,0.00
2024-05-09T00:19:28.980Z,0.00
2024-05-09T00:20:37.092Z,0.00
2024-05-09T00:21:29.005Z,0.00
2024-05-09T00:22:29.056Z,0.00
2024-05-09T00:23:29.334Z,0.00
2024-05-09T00:24:29.176Z,0.00
2024-05-09T00:25:29.218Z,0.00
2024-05-09T00:26:29.360Z,0.00
2024-05-09T00:27:29.324Z,0.00
2024-05-09T00:28:29.379Z,0.00
2024-05-09T00:29:29.492Z,0.00
2024-05-09T00:30:34.199Z,0.00
2024-05-09T00:31:29.528Z,0.00
2024-05-09T00:32:29.713Z,0.00
2024-05-09T00:33:29.914Z,0.00
2024-05-09T00:34:29.832Z,0.00
2024-05-09T00:35:29.967Z,0.00
2024-05-09T00:36:29.794Z,0.00
2024-05-09T00:37:29.852Z,0.00
2024-05-09T00:38:30.001Z,0.00
2024-05-09T00:39:29.945Z,0.00
2024-05-09T00:40:37.707Z,0.00
2024-05-09T00:41:30.142Z,0.00
2024-05-09T00:42:30.105Z,0.00
2024-05-09T00:43:30.151Z,0.00
2024-05-09T00:44:30.284Z,0.00
2024-05-09T00:45:30.259Z,0.00
2024-05-09T00:46:30.310Z,0.00
2024-05-09T00:47:30.690Z,0.00
2024-05-09T00:48:30.620Z,0.00
2024-05-09T00:49:30.846Z,0.00
2024-05-09T00:50:36.124Z,0.00
2024-05-09T00:51:30.586Z,0.00
2024-05-09T00:52:30.626Z,0.00
2024-05-09T00:53:30.915Z,0.00
2024-05-09T00:54:30.730Z,0.00
2024-05-09T00:55:30.787Z,0.00
2024-05-09T00:56:30.964Z,0.00
2024-05-09T00:57:30.887Z,0.00
2024-05-09T00:58:30.943Z,0.00
2024-05-09T00:59:31.113Z,0.00
2024-05-09T01:00:37.982Z,0.00
2024-05-09T01:01:31.120Z,0.00
2024-05-09T01:02:31.213Z,0.00
2024-05-09T01:03:31.384Z,0.00
2024-05-09T01:04:31.266Z,0.00
2024-05-09T01:05:31.323Z,0.00
2024-05-09T01:06:31.360Z,0.00
2024-05-09T01:07:31.406Z,0.00
2024-05-09T01:08:31.568Z,0.00
2024-05-09T01:09:31.516Z,0.00
2024-05-09T01:10:34.659Z,0.00
2024-05-09T01:11:31.679Z,0.00
2024-05-09T01:12:31.791Z,0.00
2024-05-09T01:13:31.777Z,0.00
2024-05-09T01:14:31.814Z,0.00
2024-05-09T01:15:31.873Z,0.00
2024-05-09T01:16:31.880Z,0.00
2024-05-09T01:17:32.151Z,0.00
2024-05-09T01:18:32.130Z,0.00
2024-05-09T01:19:32.136Z,0.00
2024-05-09T01:20:40.464Z,0.00
2024-05-09T01:21:32.154Z,0.00
2024-05-09T01:22:32.194Z,0.00
2024-05-09T01:23:32.446Z,0.00
2024-05-09T01:24:32.298Z,0.00
2024-05-09T01:25:32.351Z,0.00
2024-05-09T01:26:32.426Z,0.00
2024-05-09T01:27:35.075Z,0.00
2024-05-09T01:28:32.503Z,0.00
2024-05-09T01:29:32.677Z,0.00
2024-05-09T01:30:35.340Z,0.00
2024-05-09T01:31:32.708Z,0.00
2024-05-09T01:32:32.802Z,0.00
2024-05-09T01:33:33.269Z,0.00
2024-05-09T01:34:32.814Z,0.00
2024-05-09T01:35:32.947Z,0.00
2024-05-09T01:36:32.919Z,0.00
2024-05-09T01:37:33.002Z,0.00
2024-05-09T01:38:33.220Z,0.00
2024-05-09T01:39:33.078Z,0.00
2024-05-09T01:40:37.785Z,0.00
2024-05-09T01:41:33.200Z,0.00
2024-05-09T01:42:33.234Z,0.00
2024-05-09T01:43:33.292Z,0.00
2024-05-09T01:44:33.399Z,0.00
2024-05-09T01:45:33.424Z,0.00
2024-05-09T01:46:33.442Z,0.00
2024-05-09T01:47:33.617Z,0.00
2024-05-09T01:48:33.624Z,0.00
2024-05-09T01:49:33.690Z,0.00
2024-05-09T01:50:38.773Z,0.00
2024-05-09T01:51:33.705Z,0.00
2024-05-09T01:52:33.749Z,0.00
2024-05-09T01:53:33.980Z,0.00
2024-05-09T01:54:33.856Z,0.00
2024-05-09T01:55:33.924Z,0.00
2024-05-09T01:56:34.049Z,0.00
2024-05-09T01:57:34.012Z,0.00
2024-05-09T01:58:34.067Z,0.00
2024-05-09T01:59:34.154Z,0.00
2024-05-09T02:00:39.533Z,0.00
2024-05-09T02:01:55.507Z,0.00
2024-05-09T02:02:34.337Z,0.00
2024-05-09T02:03:34.513Z,0.00
2024-05-09T02:04:34.459Z,0.00
2024-05-09T02:05:34.704Z,0.00
2024-05-09T02:06:34.486Z,0.00
2024-05-09T02:07:34.533Z,0.00
2024-05-09T02:08:34.824Z,0.00
2024-05-09T02:09:34.700Z,0.00
2024-05-09T02:10:34.716Z,0.00
2024-05-09T02:11:34.924Z,0.00
2024-05-09T02:12:34.827Z,0.00
2024-05-09T02:13:34.878Z,0.00
2024-05-09T02:14:34.957Z,0.00
2024-05-09T02:15:34.949Z,0.00
2024-05-09T02:16:35.001Z,0.00
2024-05-09T02:17:35.242Z,0.00
2024-05-09T02:18:35.148Z,0.00
2024-05-09T02:19:35.256Z,0.00
2024-05-09T02:20:36.772Z,0.00
2024-05-09T02:21:35.261Z,0.00
2024-05-09T02:22:35.315Z,0.00
2024-05-09T02:23:35.421Z,0.00
2024-05-09T02:24:35.422Z,0.00
2024-05-09T02:25:35.485Z,0.00
2024-05-09T02:26:35.594Z,0.00
2024-05-09T02:27:35.573Z,0.00
2024-05-09T02:28:35.631Z,0.00
2024-05-09T02:29:35.716Z,0.00
2024-05-09T02:30:40.132Z,0.00
2024-05-09T02:31:35.798Z,0.00
2024-05-09T02:32:35.981Z,0.00
2024-05-09T02:33:36.211Z,0.00
2024-05-09T02:34:35.952Z,0.00
2024-05-09T02:35:36.099Z,0.00
2024-05-09T02:36:36.044Z,0.00
2024-05-09T02:37:36.097Z,0.00
2024-05-09T02:38:36.299Z,0.00
2024-05-09T02:39:36.195Z,0.00
2024-05-09T02:40:38.656Z,0.00
2024-05-09T02:41:36.343Z,0.00
2024-05-09T02:42:36.354Z,0.00
2024-05-09T02:43:36.406Z,0.00
2024-05-09T02:44:36.494Z,0.00
2024-05-09T02:45:36.525Z,0.00
2024-05-09T02:46:36.563Z,0.00
2024-05-09T02:47:36.978Z,0.00
2024-05-09T02:48:36.791Z,0.00
2024-05-09T02:49:36.999Z,0.00
2024-05-09T02:50:39.353Z,0.00
2024-05-09T02:51:36.826Z,0.00
2024-05-09T02:52:36.891Z,0.00
2024-05-09T02:53:37.117Z,0.00
2024-05-09T02:54:36.990Z,0.00
2024-05-09T02:55:37.056Z,0.00
2024-05-09T02:56:37.227Z,0.00
2024-05-09T02:57:37.147Z,0.00
2024-05-09T02:58:37.186Z,0.00
2024-05-09T02:59:37.312Z,0.00
2024-05-09T03:00:40.657Z,0.00
2024-05-09T03:01:37.383Z,0.00
2024-05-09T03:02:37.493Z,0.00
2024-05-09T03:03:37.700Z,0.00
2024-05-09T03:04:37.557Z,0.00
2024-05-09T03:05:37.634Z,0.00
2024-05-09T03:06:37.606Z,0.00
2024-05-09T03:07:37.758Z,0.00
2024-05-09T03:08:37.784Z,0.00
2024-05-09T03:09:37.764Z,0.00
2024-05-09T03:10:39.171Z,0.00
2024-05-09T03:11:37.976Z,0.00
2024-05-09T03:12:39.388Z,0.00
2024-05-09T03:13:37.979Z,0.00
2024-05-09T03:14:38.071Z,0.00
2024-05-09T03:15:38.083Z,0.00
2024-05-09T03:16:38.122Z,0.00
2024-05-09T03:17:38.402Z,0.00
2024-05-09T03:18:38.263Z,0.00
2024-05-09T03:19:38.311Z,0.00
2024-05-09T03:20:38.729Z,0.00
2024-05-09T03:21:38.386Z,0.00
2024-05-09T03:22:38.438Z,0.00
2024-05-09T03:23:38.610Z,0.00
2024-05-09T03:24:38.541Z,0.00
2024-05-09T03:25:38.907Z,0.00
2024-05-09T03:26:38.692Z,0.00
2024-05-09T03:27:38.705Z,0.00
2024-05-09T03:28:38.751Z,0.00
2024-05-09T03:29:38.905Z,0.00
2024-05-09T03:30:42.255Z,0.00
2024-05-09T03:31:38.976Z,0.00
2024-05-09T03:32:39.098Z,0.00
2024-05-09T03:33:39.220Z,0.00
2024-05-09T03:34:39.076Z,0.00
2024-05-09T03:35:39.147Z,0.00
2024-05-09T03:36:39.168Z,0.00
2024-05-09T03:37:39.223Z,0.00
2024-05-09T03:38:39.301Z,0.00
2024-05-09T03:39:39.323Z,0.00
2024-05-09T03:40:39.375Z,0.00
2024-05-09T03:41:39.440Z,0.00
2024-05-09T03:42:39.479Z,0.00
2024-05-09T03:43:39.528Z,0.00
2024-05-09T03:44:39.660Z,0.00
2024-05-09T03:45:39.667Z,0.00
2024-05-09T03:46:39.683Z,0.00
2024-05-09T03:47:39.935Z,0.00
2024-05-09T03:48:39.851Z,0.00
2024-05-09T03:49:39.936Z,0.00
2024-05-09T03:50:39.969Z,0.00
2024-05-09T03:51:39.957Z,0.00
2024-05-09T03:52:40.006Z,0.00
2024-05-09T03:53:40.317Z,0.00
2024-05-09T03:54:40.097Z,5.63
2024-05-09T03:55:40.164Z,5.63
2024-05-09T03:56:40.443Z,5.63
2024-05-09T03:57:40.256Z,5.63
2024-05-09T03:58:40.315Z,5.63
2024-05-09T03:59:40.454Z,5.63
2024-05-09T04:00:40.725Z,5.63
2024-05-09T04:01:40.665Z,5.63
2024-05-09T04:02:40.571Z,5.63
2024-05-09T04:03:40.738Z,5.63
2024-05-09T04:04:40.739Z,11.25
2024-05-09T04:05:42.114Z,11.25
2024-05-09T04:06:40.723Z,11.25
2024-05-09T04:07:40.780Z,11.25
2024-05-09T04:08:40.909Z,11.25
2024-05-09T04:09:40.881Z,11.25
2024-05-09T04:10:40.950Z,11.25
2024-05-09T04:11:41.118Z,16.88
2024-05-09T04:12:41.039Z,16.88
2024-05-09T04:13:41.091Z,16.88
2024-05-09T04:14:41.255Z,16.88
2024-05-09T04:15:41.192Z,16.88
2024-05-09T04:16:41.254Z,22.50
2024-05-09T04:17:41.482Z,22.50
2024-05-09T04:18:41.596Z,22.50
2024-05-09T04:19:41.426Z,22.50
2024-05-09T04:20:41.739Z,22.50
2024-05-09T04:21:41.509Z,22.50
2024-05-09T04:22:41.564Z,28.13
2024-05-09T04:23:41.664Z,28.13
2024-05-09T04:24:41.666Z,28.13
2024-05-09T04:25:41.731Z,28.13
2024-05-09T04:26:41.821Z,33.75
2024-05-09T04:27:41.820Z,33.75
2024-05-09T04:28:41.872Z,33.75
2024-05-09T04:29:41.921Z,33.75
2024-05-09T04:30:42.673Z,33.75
2024-05-09T04:31:42.025Z,33.75
2024-05-09T04:32:42.328Z,39.38
2024-05-09T04:33:42.255Z,39.38
2024-05-09T04:34:42.210Z,39.38
2024-05-09T04:35:42.838Z,39.38
2024-05-09T04:36:44.348Z,45.00
2024-05-09T04:37:42.339Z,45.00
2024-05-09T04:38:42.477Z,45.00
2024-05-09T04:39:42.439Z,50.63
2024-05-09T04:40:42.659Z,50.63
2024-05-09T04:41:42.560Z,50.63
2024-05-09T04:42:42.603Z,56.25
2024-05-09T04:43:42.650Z,56.25
2024-05-09T04:44:42.703Z,56.25
2024-05-09T04:45:42.756Z,56.25
2024-05-09T04:46:42.801Z,56.25
2024-05-09T04:47:43.033Z,56.25
2024-05-09T04:48:43.004Z,56.25
2024-05-09T04:49:43.013Z,56.25
2024-05-09T04:50:43.095Z,61.88
2024-05-09T04:51:43.069Z,61.88
2024-05-09T04:52:43.113Z,67.50
2024-05-09T04:53:43.215Z,67.50
2024-05-09T04:54:43.224Z,67.50
2024-05-09T04:55:43.322Z,73.13
2024-05-09T04:56:43.390Z,73.13
2024-05-09T04:57:43.391Z,73.13
2024-05-09T04:58:43.428Z,73.13
2024-05-09T04:59:43.479Z,78.75
2024-05-09T05:00:43.614Z,78.75
2024-05-09T05:01:43.591Z,78.75
2024-05-09T05:02:43.802Z,84.38
2024-05-09T05:03:43.923Z,78.75
2024-05-09T05:04:43.911Z,78.75
2024-05-09T05:05:45.047Z,84.38
2024-05-09T05:06:43.842Z,84.38
2024-05-09T05:07:44.010Z,90.00
2024-05-09T05:08:43.999Z,84.38
2024-05-09T05:09:44.014Z,90.00
2024-05-09T05:10:44.089Z,95.63
2024-05-09T05:11:44.330Z,101.25
2024-05-09T05:12:44.157Z,101.25
2024-05-09T05:13:44.252Z,101.25
2024-05-09T05:14:44.258Z,101.25
2024-05-09T05:15:44.316Z,101.25
2024-05-09T05:16:44.425Z,106.88
2024-05-09T05:17:44.548Z,106.88
2024-05-09T05:18:44.576Z,112.50
2024-05-09T05:19:44.790Z,112.50
2024-05-09T05:20:44.738Z,112.50
2024-05-09T05:21:44.639Z,118.13
2024-05-09T05:22:44.727Z,118.13
2024-05-09T05:23:44.770Z,118.13
2024-05-09T05:24:44.785Z,123.75
2024-05-09T05:25:44.929Z,118.13
2024-05-09T05:26:44.910Z,118.13
2024-05-09T05:27:44.936Z,123.75
2024-05-09T05:28:45.032Z,123.75
2024-05-09T05:29:45.067Z,129.38
2024-05-09T05:30:45.106Z,129.38
2024-05-09T05:31:45.266Z,135.00
2024-05-09T05:32:45.308Z,135.00
2024-05-09T05:33:45.391Z,140.63
2024-05-09T05:34:45.358Z,146.25
2024-05-09T05:35:45.416Z,146.25
2024-05-09T05:36:45.409Z,140.63
2024-05-09T05:37:45.508Z,135.00
2024-05-09T05:38:45.613Z,135.00
2024-05-09T05:39:45.569Z,135.00
2024-05-09T05:40:45.663Z,135.00
2024-05-09T05:41:45.690Z,135.00
2024-05-09T05:42:45.725Z,140.63
2024-05-09T05:43:45.856Z,146.25
2024-05-09T05:44:45.831Z,151.88
2024-05-09T05:45:45.880Z,151.88
2024-05-09T05:46:45.977Z,157.50
2024-05-09T05:47:46.406Z,157.50
2024-05-09T05:48:46.215Z,163.13
2024-05-09T05:49:46.089Z,163.13
2024-05-09T05:50:46.427Z,163.13
2024-05-09T05:51:46.210Z,168.75
2024-05-09T05:52:46.267Z,174.38
2024-05-09T05:53:46.380Z,174.38
2024-05-09T05:54:46.358Z,174.38
2024-05-09T05:55:46.478Z,168.75
2024-05-09T05:56:46.570Z,174.38
2024-05-09T05:57:46.518Z,180.00
2024-05-09T05:58:46.585Z,180.00
2024-05-09T05:59:46.669Z,185.63
2024-05-09T06:00:46.773Z,185.63
2024-05-09T06:01:46.751Z,191.25
2024-05-09T06:02:47.147Z,196.88
2024-05-09T06:03:47.120Z,196.88
2024-05-09T06:04:47.171Z,202.50
2024-05-09T06:05:47.240Z,202.50
2024-05-09T06:06:46.991Z,202.50
2024-05-09T06:07:47.135Z,202.50
2024-05-09T06:08:47.150Z,202.50
2024-05-09T06:09:48.248Z,208.13
2024-05-09T06:10:47.342Z,202.50
2024-05-09T06:11:47.425Z,202.50
2024-05-09T06:12:47.314Z,208.13
2024-05-09T06:13:47.414Z,208.13
2024-05-09T06:14:47.430Z,208.13
2024-05-09T06:15:47.508Z,202.50
2024-05-09T06:16:47.652Z,208.13
2024-05-09T06:17:47.689Z,213.75
2024-05-09T06:18:47.834Z,213.75
2024-05-09T06:19:47.869Z,213.75
2024-05-09T06:20:47.806Z,219.38
2024-05-09T06:21:47.789Z,225.00
2024-05-09T06:22:47.893Z,225.00
2024-05-09T06:23:47.948Z,230.63
2024-05-09T06:24:47.957Z,236.25
2024-05-09T06:25:48.075Z,236.25
2024-05-09T06:26:48.078Z,236.25
2024-05-09T06:27:48.115Z,236.25
2024-05-09T06:28:48.255Z,236.25
2024-05-09T06:29:48.228Z,236.25
2024-05-09T06:30:48.282Z,236.25
2024-05-09T06:31:48.351Z,241.88
2024-05-09T06:32:48.622Z,247.50
2024-05-09T06:33:48.821Z,258.75
2024-05-09T06:34:48.682Z,270.00
2024-05-09T06:35:48.628Z,275.63
2024-05-09T06:36:48.600Z,281.25
2024-05-09T06:37:48.680Z,286.88
2024-05-09T06:38:48.751Z,298.13
2024-05-09T06:39:48.775Z,303.75
2024-05-09T06:40:48.960Z,320.63
2024-05-09T06:41:48.887Z,337.50
2024-05-09T06:42:48.927Z,348.75
2024-05-09T06:43:49.043Z,354.38
2024-05-09T06:44:49.031Z,360.00
2024-05-09T06:45:49.392Z,365.63
2024-05-09T06:46:49.214Z,365.63
2024-05-09T06:47:49.445Z,360.00
2024-05-09T06:48:49.755Z,354.38
2024-05-09T06:49:49.393Z,348.75
2024-05-09T06:50:49.480Z,343.13
2024-05-09T06:51:49.414Z,343.13
2024-05-09T06:52:49.493Z,343.13
2024-05-09T06:53:49.548Z,348.75
2024-05-09T06:54:49.580Z,354.38
2024-05-09T06:55:50.000Z,360.00
2024-05-09T06:56:49.699Z,371.25
2024-05-09T06:57:49.744Z,382.50
2024-05-09T06:58:49.860Z,388.13
2024-05-09T06:59:49.848Z,399.38
2024-05-09T07:00:49.944Z,405.00
2024-05-09T07:01:50.001Z,416.25
2024-05-09T07:02:50.213Z,427.50
2024-05-09T07:03:50.116Z,416.25
2024-05-09T07:04:50.229Z,416.25
2024-05-09T07:05:50.286Z,421.88
2024-05-09T07:06:50.237Z,421.88
2024-05-09T07:07:50.304Z,433.13
2024-05-09T07:08:52.381Z,433.13
2024-05-09T07:09:50.395Z,438.75
2024-05-09T07:10:50.622Z,438.75
2024-05-09T07:11:50.704Z,450.00
2024-05-09T07:12:50.561Z,461.25
2024-05-09T07:13:50.669Z,461.25
2024-05-09T07:14:50.777Z,455.63
2024-05-09T07:15:50.765Z,450.00
2024-05-09T07:16:50.834Z,455.63
2024-05-09T07:17:51.064Z,450.00
2024-05-09T07:18:51.264Z,450.00
2024-05-09T07:19:51.042Z,455.63
2024-05-09T07:20:51.282Z,461.25
2024-05-09T07:21:51.053Z,472.50
2024-05-09T07:22:51.152Z,489.38
2024-05-09T07:23:51.246Z,500.63
2024-05-09T07:24:51.217Z,506.25
2024-05-09T07:25:51.320Z,523.13
2024-05-09T07:26:51.324Z,523.13
2024-05-09T07:27:51.385Z,528.75
2024-05-09T07:28:51.472Z,523.13
2024-05-09T07:29:51.643Z,528.75
2024-05-09T07:30:51.551Z,511.88
2024-05-09T07:31:51.678Z,534.38
2024-05-09T07:32:51.803Z,540.00
2024-05-09T07:33:51.763Z,540.00
2024-05-09T07:34:51.815Z,545.63
2024-05-09T07:35:52.053Z,556.88
2024-05-09T07:36:51.883Z,556.88
2024-05-09T07:37:51.988Z,556.88
2024-05-09T07:38:52.041Z,568.13
2024-05-09T07:39:52.053Z,551.25
2024-05-09T07:40:52.137Z,551.25
2024-05-09T07:41:52.168Z,562.50
2024-05-09T07:42:52.214Z,556.88
2024-05-09T07:43:52.356Z,556.88
2024-05-09T07:44:52.405Z,556.88
2024-05-09T07:45:54.845Z,562.50
2024-05-09T07:48:13.630Z,573.75
2024-05-09T07:49:35.282Z,590.63
2024-05-09T07:51:32.826Z,624.38
2024-05-09T07:52:37.531Z,641.25
2024-05-09T07:53:21.093Z,641.25
2024-05-09T07:53:35.484Z,646.88
2024-05-09T07:53:55.950Z,686.25
2024-05-09T07:54:53.123Z,686.25
2024-05-09T07:55:53.172Z,691.88
2024-05-09T07:56:53.281Z,714.38
2024-05-09T07:57:53.081Z,691.88
2024-05-09T07:58:53.243Z,669.38
2024-05-09T07:59:53.177Z,686.25
2024-05-09T08:00:53.434Z,680.63
2024-05-09T08:01:53.470Z,691.88
2024-05-09T08:02:53.427Z,697.50
2024-05-09T08:03:53.921Z,720.00
2024-05-09T08:04:53.576Z,697.50
2024-05-09T08:05:53.639Z,669.38
2024-05-09T08:06:53.618Z,635.63
2024-05-09T08:07:53.639Z,601.88
2024-05-09T08:08:53.697Z,596.25
2024-05-09T08:09:53.788Z,573.75
2024-05-09T08:10:53.884Z,556.88
2024-05-09T08:11:53.881Z,517.50
2024-05-09T08:12:54.029Z,506.25
2024-05-09T08:13:53.981Z,489.38
2024-05-09T08:14:54.039Z,427.50
2024-05-09T08:15:54.131Z,405.00
2024-05-09T08:16:54.184Z,388.13
2024-05-09T08:17:54.261Z,360.00
2024-05-09T08:18:54.351Z,360.00
2024-05-09T08:19:54.315Z,371.25
2024-05-09T08:20:54.379Z,348.75
2024-05-09T08:21:54.451Z,337.50
2024-05-09T08:22:54.494Z,315.00
2024-05-09T08:23:54.561Z,303.75
2024-05-09T08:24:54.628Z,303.75
2024-05-09T08:25:54.666Z,303.75
2024-05-09T08:26:54.717Z,298.13
2024-05-09T08:27:54.843Z,298.13
2024-05-09T08:28:54.830Z,298.13
2024-05-09T08:29:54.892Z,286.88
2024-05-09T08:30:55.044Z,292.50
2024-05-09T08:31:55.014Z,286.88
2024-05-09T08:32:55.261Z,286.88
2024-05-09T08:33:55.343Z,286.88
2024-05-09T08:34:55.205Z,281.25
2024-05-09T08:35:55.225Z,281.25
2024-05-09T08:36:56.283Z,281.25
2024-05-09T08:37:55.372Z,275.63
2024-05-09T08:38:55.402Z,275.63
2024-05-09T08:39:55.548Z,275.63
2024-05-09T08:40:55.577Z,275.63
2024-05-09T08:41:55.560Z,275.63
2024-05-09T08:42:55.681Z,270.00
2024-05-09T08:43:55.674Z,270.00
2024-05-09T08:44:55.737Z,270.00
2024-05-09T08:45:55.792Z,270.00
2024-05-09T08:46:55.842Z,270.00
2024-05-09T08:47:56.084Z,270.00
2024-05-09T08:48:56.111Z,270.00
2024-05-09T08:49:56.131Z,270.00
2024-05-09T08:50:56.093Z,270.00
2024-05-09T08:51:56.172Z,270.00
2024-05-09T08:52:56.184Z,270.00
2024-05-09T08:53:56.238Z,270.00
2024-05-09T08:54:56.335Z,270.00
2024-05-09T08:55:56.359Z,270.00
2024-05-09T08:56:56.421Z,270.00
2024-05-09T08:57:56.483Z,270.00
2024-05-09T08:58:56.532Z,270.00
2024-05-09T08:59:56.576Z,270.00
2024-05-09T09:00:56.730Z,270.00
2024-05-09T09:01:56.765Z,275.63
2024-05-09T09:02:56.774Z,275.63
2024-05-09T09:03:56.882Z,275.63
2024-05-09T09:04:56.973Z,286.88
2024-05-09T09:05:56.930Z,281.25
2024-05-09T09:06:58.316Z,281.25
2024-05-09T09:07:57.033Z,281.25
2024-05-09T09:08:57.085Z,281.25
2024-05-09T09:09:57.210Z,286.88
2024-05-09T09:10:57.204Z,286.88
2024-05-09T09:11:57.280Z,286.88
2024-05-09T09:12:57.357Z,286.88
2024-05-09T09:13:57.374Z,286.88
2024-05-09T09:14:57.423Z,286.88
2024-05-09T09:15:57.844Z,286.88
2024-05-09T09:16:57.537Z,292.50
2024-05-09T09:17:57.787Z,292.50
2024-05-09T09:18:58.019Z,292.50
2024-05-09T09:19:57.791Z,292.50
2024-05-09T09:20:57.762Z,292.50
2024-05-09T09:21:57.946Z,292.50
2024-05-09T09:22:57.874Z,286.88
2024-05-09T09:23:57.926Z,286.88
2024-05-09T09:24:57.999Z,292.50
2024-05-09T09:25:58.067Z,292.50
2024-05-09T09:26:58.103Z,292.50
2024-05-09T09:27:58.415Z,292.50
2024-05-09T09:28:58.218Z,292.50
2024-05-09T09:29:58.274Z,292.50
2024-05-09T09:30:58.415Z,292.50
2024-05-09T09:31:58.390Z,292.50
2024-05-09T09:32:58.608Z,292.50
2024-05-09T09:33:58.646Z,292.50
2024-05-09T09:34:58.601Z,292.50
2024-05-09T09:35:58.613Z,298.13
2024-05-09T09:36:58.711Z,298.13
2024-05-09T09:37:58.754Z,298.13
2024-05-09T09:38:58.784Z,298.13
2024-05-09T09:39:58.873Z,298.13
2024-05-09T09:40:59.018Z,298.13
2024-05-09T09:41:58.959Z,298.13
2024-05-09T09:42:59.085Z,298.13
2024-05-09T09:43:59.077Z,298.13
2024-05-09T09:45:04.808Z,298.13
2024-05-09T09:45:59.238Z,303.75
2024-05-09T09:46:59.253Z,303.75
2024-05-09T09:47:59.484Z,309.38
2024-05-09T09:48:59.484Z,303.75
2024-05-09T09:49:59.416Z,298.13
2024-05-09T09:50:59.475Z,298.13
2024-05-09T09:51:59.561Z,298.13
2024-05-09T09:52:59.587Z,298.13
2024-05-09T09:53:59.657Z,298.13
2024-05-09T09:54:59.747Z,298.13
2024-05-09T09:55:59.758Z,298.13
2024-05-09T09:56:59.822Z,298.13
2024-05-09T09:57:59.993Z,298.13
2024-05-09T09:58:59.933Z,298.13
2024-05-09T09:59:59.990Z,303.75
2024-05-09T10:01:00.194Z,303.75
2024-05-09T10:02:00.279Z,309.38
2024-05-09T10:03:00.364Z,315.00
2024-05-09T10:04:00.455Z,320.63
2024-05-09T10:05:00.342Z,331.88
2024-05-09T10:06:00.452Z,343.13
2024-05-09T10:07:00.426Z,365.63
2024-05-09T10:08:00.476Z,382.50
2024-05-09T10:09:00.516Z,410.63
2024-05-09T10:10:00.700Z,444.38
2024-05-09T10:11:00.712Z,506.25
2024-05-09T10:12:00.953Z,703.13
2024-05-09T10:13:01.202Z,1288.13
2024-05-09T10:14:00.805Z,1816.88
2024-05-09T10:15:00.860Z,1957.50
2024-05-09T10:16:01.103Z,2013.75
2024-05-09T10:17:00.998Z,1991.25
2024-05-09T10:18:01.136Z,2041.88
2024-05-09T10:19:01.233Z,2086.88
2024-05-09T10:20:01.200Z,2148.75
2024-05-09T10:21:01.230Z,2165.63
2024-05-09T10:22:01.369Z,2176.88
2024-05-09T10:23:01.354Z,2182.50
2024-05-09T10:24:01.401Z,2188.13
2024-05-09T10:25:03.594Z,2188.13
2024-05-09T10:26:01.794Z,2221.88
2024-05-09T10:27:01.592Z,2238.75
2024-05-09T10:28:01.681Z,2255.63
2024-05-09T10:29:01.713Z,2261.25
2024-05-09T10:30:02.825Z,2255.63
2024-05-09T10:31:01.873Z,2261.25
2024-05-09T10:32:01.913Z,2261.25
2024-05-09T10:33:02.074Z,2266.88
2024-05-09T10:34:02.262Z,2283.75
2024-05-09T10:35:02.169Z,2272.50
2024-05-09T10:36:02.157Z,2266.88
2024-05-09T10:37:04.797Z,2283.75
2024-05-09T10:38:02.286Z,2272.50
2024-05-09T10:39:02.345Z,2283.75
2024-05-09T10:40:02.725Z,2250.00
2024-05-09T10:41:02.475Z,2233.13
2024-05-09T10:42:02.566Z,2221.88
2024-05-09T10:43:05.761Z,2233.13
2024-05-09T10:44:02.677Z,2210.63
2024-05-09T10:45:02.740Z,2227.50
2024-05-09T10:46:02.987Z,2210.63
2024-05-09T10:47:02.950Z,2182.50
2024-05-09T10:48:03.263Z,2221.88
2024-05-09T10:49:07.042Z,2238.75
2024-05-09T10:50:04.943Z,2233.13
2024-05-09T10:51:03.138Z,2233.13
2024-05-09T10:52:03.255Z,2227.50
2024-05-09T10:53:03.266Z,2216.25
2024-05-09T10:54:03.326Z,2216.25
2024-05-09T10:55:05.640Z,2216.25
2024-05-09T10:56:03.471Z,2188.13
2024-05-09T10:57:03.530Z,2188.13
2024-05-09T10:58:03.643Z,2160.00
2024-05-09T10:59:03.653Z,2143.13
2024-05-09T11:00:04.980Z,2126.25
2024-05-09T11:01:06.306Z,2131.88
2024-05-09T11:02:04.072Z,2120.63
2024-05-09T11:03:03.966Z,2109.38
2024-05-09T11:04:04.245Z,2086.88
2024-05-09T11:05:04.192Z,2070.00
2024-05-09T11:06:04.122Z,2047.50
2024-05-09T11:07:05.577Z,2047.50
2024-05-09T11:08:04.244Z,2030.63
2024-05-09T11:09:04.316Z,2008.13
2024-05-09T11:10:06.246Z,1996.88
2024-05-09T11:11:04.437Z,1985.63
2024-05-09T11:12:04.623Z,1963.13
2024-05-09T11:13:04.783Z,1974.38
2024-05-09T11:14:04.649Z,1963.13
2024-05-09T11:15:04.702Z,1963.13
2024-05-09T11:16:04.943Z,1951.88
2024-05-09T11:17:04.905Z,1940.63
2024-05-09T11:18:05.141Z,1951.88
2024-05-09T11:19:05.096Z,1963.13
2024-05-09T11:20:13.309Z,1693.13
2024-05-09T11:21:05.102Z,1935.00
2024-05-09T11:22:05.288Z,1974.38
2024-05-09T11:23:05.233Z,1974.38
2024-05-09T11:24:07.323Z,1895.63
2024-05-09T11:25:05.470Z,1951.88
2024-05-09T11:26:05.434Z,1974.38
2024-05-09T11:27:05.498Z,1968.75
2024-05-09T11:28:05.672Z,1974.38
2024-05-09T11:29:05.637Z,1974.38
2024-05-09T11:30:09.212Z,1980.00
2024-05-09T11:31:05.863Z,1558.13
2024-05-09T11:32:05.947Z,2013.75
2024-05-09T11:33:05.915Z,2041.88
2024-05-09T11:34:05.995Z,466.88
2024-05-09T11:35:06.035Z,1260.00
2024-05-09T11:36:06.097Z,2053.13
2024-05-09T11:37:06.207Z,2120.63
2024-05-09T11:38:06.254Z,2126.25
2024-05-09T11:39:06.307Z,2188.13
2024-05-09T11:40:11.467Z,2244.38
2024-05-09T11:41:06.422Z,2295.00
2024-05-09T11:42:06.488Z,2328.75
2024-05-09T11:43:06.612Z,2362.50
2024-05-09T11:44:06.621Z,2458.13
2024-05-09T11:45:06.690Z,2525.63
2024-05-09T11:46:06.895Z,2565.00
2024-05-09T11:47:06.870Z,2694.38
2024-05-09T11:48:06.987Z,2778.75
2024-05-09T11:49:07.337Z,2840.63
2024-05-09T11:50:08.319Z,2908.13
2024-05-09T11:51:07.078Z,2930.63
2024-05-09T11:52:07.239Z,3015.00
2024-05-09T11:53:07.215Z,2998.13
2024-05-09T11:54:07.276Z,1552.50
2024-05-09T11:55:07.374Z,2671.88
2024-05-09T11:56:07.426Z,1102.50
2024-05-09T11:57:07.471Z,3003.75
2024-05-09T11:58:07.565Z,2891.25
2024-05-09T11:59:07.619Z,3031.88
2024-05-09T12:00:09.673Z,3076.88
2024-05-09T12:01:07.875Z,3082.50
2024-05-09T12:02:08.058Z,3031.88
2024-05-09T12:03:07.890Z,3020.63
2024-05-09T12:04:08.203Z,3060.00
2024-05-09T12:05:08.207Z,3054.38
2024-05-09T12:06:08.099Z,3065.63
2024-05-09T12:07:09.737Z,545.63
2024-05-09T12:08:08.237Z,596.25
2024-05-09T12:09:08.268Z,635.63
2024-05-09T12:10:14.007Z,3262.50
2024-05-09T12:11:08.450Z,3245.63
2024-05-09T12:12:08.466Z,3273.75
2024-05-09T12:13:08.617Z,1569.38
2024-05-09T12:14:08.600Z,3273.75
2024-05-09T12:15:08.657Z,3240.00
2024-05-09T12:16:08.804Z,3301.88
2024-05-09T12:17:08.852Z,3307.50
2024-05-09T12:18:09.074Z,3324.38
2024-05-09T12:19:09.085Z,3375.00
2024-05-09T12:20:17.403Z,3346.88
2024-05-09T12:21:09.068Z,3369.38
2024-05-09T12:22:09.340Z,596.25
2024-05-09T12:23:10.382Z,3352.50
2024-05-09T12:24:09.265Z,3358.13
2024-05-09T12:25:09.581Z,3318.75
2024-05-09T12:26:09.392Z,3307.50
2024-05-09T12:27:09.453Z,3313.13
2024-05-09T12:28:09.629Z,3296.25
2024-05-09T12:29:09.588Z,3301.88
2024-05-09T12:30:14.142Z,3318.75
2024-05-09T12:31:09.782Z,3346.88
2024-05-09T12:32:09.837Z,3369.38
2024-05-09T12:33:11.072Z,3346.88
2024-05-09T12:34:10.063Z,3307.50
2024-05-09T12:35:09.978Z,3301.88
2024-05-09T12:36:10.048Z,3268.13
2024-05-09T12:37:10.354Z,3262.50
2024-05-09T12:38:10.179Z,3234.38
2024-05-09T12:39:10.247Z,3240.00
2024-05-09T12:40:18.698Z,3228.75
2024-05-09T12:41:10.403Z,3256.88
2024-05-09T12:42:14.596Z,3211.88
2024-05-09T12:43:11.469Z,3206.25